createdAt,value
2017-04-08T00:00:25.259Z,10.93
2017-04-08T00:01:05.856Z,10.94
2017-04-08T00:01:46.474Z,11.02
2017-04-08T00:02:27.080Z,10.94
2017-04-08T00:03:07.669Z,10.92
2017-04-08T00:03:48.278Z,10.94
2017-04-08T00:04:28.862Z,10.92
2017-04-08T00:05:09.492Z,11.04
2017-04-08T00:05:50.078Z,10.94
2017-04-08T00:06:30.680Z,10.99
2017-04-08T00:07:11.294Z,11
2017-04-08T00:07:51.898Z,10.99
2017-04-08T00:08:32.488Z,10.86
2017-04-08T00:09:13.095Z,10.89
2017-04-08T00:09:53.749Z,10.87
2017-04-08T00:10:34.320Z,10.89
2017-04-08T00:11:14.899Z,10.82
2017-04-08T00:11:55.525Z,10.81
2017-04-08T00:12:36.118Z,10.87
2017-04-08T00:13:16.709Z,10.87
2017-04-08T00:13:57.271Z,10.86
2017-04-08T00:14:37.900Z,10.87
2017-04-08T00:15:18.509Z,10.86
2017-04-08T00:15:59.094Z,10.87
2017-04-08T00:16:39.710Z,10.87
2017-04-08T00:17:20.336Z,10.89
2017-04-08T00:18:00.916Z,10.74
2017-04-08T00:18:41.482Z,10.78
2017-04-08T00:19:22.073Z,10.72
2017-04-08T00:20:02.699Z,10.78
2017-04-08T00:20:43.325Z,10.76
2017-04-08T00:21:23.909Z,10.79
2017-04-08T00:22:04.505Z,10.76
2017-04-08T00:22:45.083Z,10.72
2017-04-08T00:23:25.667Z,10.87
2017-04-08T00:24:06.279Z,10.75
2017-04-08T00:24:46.885Z,10.81
2017-04-08T00:25:27.494Z,10.87
2017-04-08T00:26:08.081Z,10.78
2017-04-08T00:26:48.685Z,10.78
2017-04-08T00:27:29.260Z,10.84
2017-04-08T00:28:09.852Z,10.78
2017-04-08T00:28:50.445Z,10.82
2017-04-08T00:29:31.079Z,10.75
2017-04-08T00:30:11.700Z,10.89
2017-04-08T00:30:52.292Z,10.78
2017-04-08T00:31:32.893Z,10.79
2017-04-08T00:32:13.540Z,10.78
2017-04-08T00:32:54.156Z,10.79
2017-04-08T00:33:34.781Z,10.76
2017-04-08T00:34:15.385Z,10.76
2017-04-08T00:34:56.002Z,10.72
2017-04-08T00:35:36.603Z,10.74
2017-04-08T00:36:17.197Z,10.75
2017-04-08T00:36:57.784Z,10.76
2017-04-08T00:37:38.363Z,10.78
2017-04-08T00:38:18.949Z,10.81
2017-04-08T00:38:59.534Z,10.69
2017-04-08T00:39:40.097Z,10.75
2017-04-08T00:40:20.681Z,10.72
2017-04-08T00:41:01.257Z,10.75
2017-04-08T00:41:41.851Z,10.72
2017-04-08T00:42:22.422Z,10.76
2017-04-08T00:43:02.993Z,10.76
2017-04-08T00:43:43.556Z,10.72
2017-04-08T00:44:24.133Z,10.72
2017-04-08T00:45:04.740Z,10.76
2017-04-08T00:45:45.325Z,10.78
2017-04-08T00:46:25.916Z,10.81
2017-04-08T00:47:06.532Z,10.78
2017-04-08T00:47:47.092Z,10.74
2017-04-08T00:48:27.675Z,10.79
2017-04-08T00:49:08.263Z,10.76
2017-04-08T00:49:48.839Z,10.81
2017-04-08T00:50:29.416Z,10.71
2017-04-08T00:51:09.998Z,10.69
2017-04-08T00:51:50.597Z,10.75
2017-04-08T00:52:31.192Z,10.72
2017-04-08T00:53:11.790Z,10.76
2017-04-08T00:53:52.364Z,10.72
2017-04-08T00:54:32.935Z,10.74
2017-04-08T00:55:13.553Z,10.74
2017-04-08T00:55:54.122Z,10.75
2017-04-08T00:56:34.701Z,10.74
2017-04-08T00:57:15.282Z,10.74
2017-04-08T00:57:55.904Z,10.72
2017-04-08T00:58:36.491Z,10.76
2017-04-08T00:59:17.166Z,10.76
2017-04-08T00:59:57.834Z,10.76
2017-04-08T01:00:38.379Z,10.75
2017-04-08T01:01:18.939Z,10.79
2017-04-08T01:01:59.531Z,10.78
2017-04-08T01:02:40.093Z,10.79
2017-04-08T01:03:20.688Z,10.72
2017-04-08T01:04:01.271Z,10.74
2017-04-08T01:04:41.873Z,10.74
2017-04-08T01:05:22.462Z,10.71
2017-04-08T01:06:03.073Z,10.72
2017-04-08T01:06:43.651Z,10.69
2017-04-08T01:07:24.237Z,10.74
2017-04-08T01:08:04.837Z,10.74
2017-04-08T01:08:45.420Z,10.74
2017-04-08T01:09:26.024Z,10.79
2017-04-08T01:10:06.602Z,10.75
2017-04-08T01:10:47.173Z,10.72
2017-04-08T01:11:27.771Z,10.81
2017-04-08T01:12:08.401Z,10.75
2017-04-08T01:12:49.048Z,10.74
2017-04-08T01:13:29.621Z,10.74
2017-04-08T01:14:10.221Z,10.71
2017-04-08T01:14:50.811Z,10.79
2017-04-08T01:15:31.395Z,10.78
2017-04-08T01:16:12.016Z,10.76
2017-04-08T01:16:52.615Z,10.76
2017-04-08T01:17:33.211Z,10.79
2017-04-08T01:18:13.787Z,10.75
2017-04-08T01:18:54.405Z,10.78
2017-04-08T01:19:35.000Z,10.74
2017-04-08T01:20:15.638Z,10.79
2017-04-08T01:20:56.265Z,10.78
2017-04-08T01:21:36.892Z,10.74
2017-04-08T01:22:17.441Z,10.76
2017-04-08T01:22:58.051Z,10.76
2017-04-08T01:23:38.603Z,10.81
2017-04-08T01:24:19.186Z,10.72
2017-04-08T01:24:59.773Z,10.76
2017-04-08T01:25:40.353Z,10.78
2017-04-08T01:26:20.933Z,10.76
2017-04-08T01:27:01.592Z,10.76
2017-04-08T01:27:42.101Z,10.74
2017-04-08T01:28:22.699Z,10.78
2017-04-08T01:29:03.280Z,10.76
2017-04-08T01:29:43.860Z,10.69
2017-04-08T01:30:24.466Z,10.72
2017-04-08T01:31:05.057Z,10.72
2017-04-08T01:31:45.622Z,10.68
2017-04-08T01:32:26.211Z,10.6
2017-04-08T01:33:06.806Z,10.61
2017-04-08T01:33:47.389Z,10.54
2017-04-08T01:34:28.003Z,10.63
2017-04-08T01:35:08.622Z,10.6
2017-04-08T01:35:49.272Z,10.54
2017-04-08T01:36:29.848Z,10.51
2017-04-08T01:37:10.458Z,10.54
2017-04-08T01:37:51.037Z,10.48
2017-04-08T01:38:31.636Z,10.51
2017-04-08T01:39:12.218Z,10.53
2017-04-08T01:39:52.803Z,10.53
2017-04-08T01:40:33.377Z,10.51
2017-04-08T01:41:13.959Z,10.49
2017-04-08T01:41:54.550Z,10.4
2017-04-08T01:42:35.183Z,10.4
2017-04-08T01:43:15.788Z,10.42
2017-04-08T01:43:56.358Z,10.4
2017-04-08T01:44:36.943Z,10.33
2017-04-08T01:45:17.540Z,10.37
2017-04-08T01:45:58.127Z,10.31
2017-04-08T01:46:38.715Z,10.26
2017-04-08T01:47:19.291Z,10.33
2017-04-08T01:47:59.885Z,10.33
2017-04-08T01:48:40.499Z,10.34
2017-04-08T01:49:21.083Z,10.37
2017-04-08T01:50:01.659Z,10.33
2017-04-08T01:50:42.266Z,10.38
2017-04-08T01:51:22.906Z,10.26
2017-04-08T01:52:03.452Z,10.33
2017-04-08T01:52:44.025Z,10.28
2017-04-08T01:53:24.674Z,10.22
2017-04-08T01:54:05.333Z,10.33
2017-04-08T01:54:45.946Z,10.28
2017-04-08T01:55:26.538Z,10.31
2017-04-08T01:56:07.170Z,10.26
2017-04-08T01:56:47.709Z,10.28
2017-04-08T01:57:28.319Z,10.3
2017-04-08T01:58:08.906Z,10.33
2017-04-08T01:58:49.553Z,10.33
2017-04-08T01:59:30.238Z,10.3
2017-04-08T02:00:10.817Z,10.31
2017-04-08T02:00:51.474Z,10.23
2017-04-08T02:01:32.066Z,10.2
2017-04-08T02:02:12.721Z,10.2
2017-04-08T02:02:53.311Z,10.25
2017-04-08T02:03:33.893Z,10.16
2017-04-08T02:04:14.494Z,10.25
2017-04-08T02:04:55.072Z,10.28
2017-04-08T02:05:35.711Z,10.19
2017-04-08T02:06:16.380Z,10.22
2017-04-08T02:06:56.961Z,10.2
2017-04-08T02:07:37.553Z,10.17
2017-04-08T02:08:18.131Z,10.17
2017-04-08T02:08:58.711Z,10.2
2017-04-08T02:09:39.292Z,10.13
2017-04-08T02:10:19.875Z,10.15
2017-04-08T02:11:00.480Z,10.15
2017-04-08T02:11:41.093Z,10.16
2017-04-08T02:12:21.675Z,10.17
2017-04-08T02:13:02.247Z,10.17
2017-04-08T02:13:42.865Z,10.15
2017-04-08T02:14:23.448Z,10.23
2017-04-08T02:15:04.032Z,10.25
2017-04-08T02:15:44.613Z,10.25
2017-04-08T02:16:25.242Z,10.23
2017-04-08T02:17:05.771Z,10.25
2017-04-08T02:17:46.381Z,10.23
2017-04-08T02:18:26.962Z,10.15
2017-04-08T02:19:07.547Z,10.26
2017-04-08T02:19:48.140Z,10.25
2017-04-08T02:20:28.713Z,10.2
2017-04-08T02:21:09.294Z,10.17
2017-04-08T02:21:49.871Z,10.16
2017-04-08T02:22:30.436Z,10.12
2017-04-08T02:23:11.000Z,10.2
2017-04-08T02:23:51.589Z,10.19
2017-04-08T02:24:32.158Z,10.17
2017-04-08T02:25:12.749Z,10.15
2017-04-08T02:25:53.336Z,10.23
2017-04-08T02:26:33.911Z,10.17
2017-04-08T02:27:14.474Z,10.13
2017-04-08T02:27:55.041Z,10.13
2017-04-08T02:28:35.630Z,10.17
2017-04-08T02:29:16.245Z,10.16
2017-04-08T02:29:56.826Z,10.22
2017-04-08T02:30:37.428Z,10.2
2017-04-08T02:31:18.009Z,10.2
2017-04-08T02:31:58.606Z,10.19
2017-04-08T02:32:39.275Z,10.13
2017-04-08T02:33:19.897Z,10.16
2017-04-08T02:34:00.490Z,10.15
2017-04-08T02:34:41.074Z,10.1
2017-04-08T02:35:21.666Z,10.13
2017-04-08T02:36:02.264Z,10.09
2017-04-08T02:36:42.846Z,10.07
2017-04-08T02:37:23.453Z,10.12
2017-04-08T02:38:04.105Z,10.07
2017-04-08T02:38:44.642Z,10.04
2017-04-08T02:39:25.303Z,10.07
2017-04-08T02:40:05.932Z,10.17
2017-04-08T02:40:46.502Z,10.23
2017-04-08T02:41:27.068Z,10.13
2017-04-08T02:42:07.656Z,10.17
2017-04-08T02:42:48.244Z,10.22
2017-04-08T02:43:28.833Z,10.23
2017-04-08T02:44:09.402Z,10.3
2017-04-08T02:44:49.980Z,10.19
2017-04-08T02:45:30.608Z,10.19
2017-04-08T02:46:11.216Z,10.22
2017-04-08T02:46:51.862Z,10.25
2017-04-08T02:47:32.484Z,10.35
2017-04-08T02:48:13.055Z,10.34
2017-04-08T02:48:53.700Z,10.3
2017-04-08T02:49:34.304Z,10.26
2017-04-08T02:50:14.909Z,10.34
2017-04-08T02:50:55.519Z,10.31
2017-04-08T02:51:36.078Z,10.3
2017-04-08T02:52:16.647Z,10.23
2017-04-08T02:52:57.253Z,10.28
2017-04-08T02:53:37.830Z,10.26
2017-04-08T02:54:18.458Z,10.25
2017-04-08T02:54:59.065Z,10.22
2017-04-08T02:55:39.651Z,10.13
2017-04-08T02:56:20.229Z,10.22
2017-04-08T02:57:00.806Z,10.22
2017-04-08T02:57:41.390Z,10.17
2017-04-08T02:58:22.007Z,10.19
